Página principal
METAR-TAF:

METAR-TAF

Aeroportos :

Pantelária, Itália

latitude: 36-49N, longitude: 011-58E, altura: 191 m

Observação actual do tempo

O boletim foi feito há 30 minutos, às 16:55 UTC
Vento 16 kt de noroeste
Temperatura 25°C
Humidade 100%
Pressão 1012 hPa
Visibilidade 10 km ou mais
Poucas nuvensa uma altura de 2000 ft

METAR: LICG 231655Z 31016KT 9999 FEW020 25/25 Q1012

Hora: 19:25 (17:25 UTC)

Previsão

O boletim foi feito há 3 horas e 25 minutos, às 14:00 UTC
Previsão válida de 23 às 15 UTC a 23 às 24 UTC
Vento 20 kt de nor-noroeste com rajadas de 30 kt
Visibilidade 10 km ou mais
Poucas nuvensa uma altura de 1500 ft

TAF: LICG 231400Z 2315/2324 33020G30KT 9999 FEW015

Observações e previsões do tempo de mais de 4000 aeroportos (mensagens METAR e TAF).

As estações disponíveis são os pontos amarelos e vermelhos sobre o mapa.

Mova o rato sobre o mapa para ver o nome da estação.

Depois clique no ponto para visualizar as observações e previsões meteorológicas.

Para alterar o mapa : clique nos botões verdes com uma cruz preta para aumentar o zoom; no botão verde com uma pitada de zoom; ou nas setas verdes para mapas adjacentes.


METAR-TAF: